Time,TemperatureF,DewpointF,PressureIn,WindDirection,WindDirectionDegrees,WindSpeedMPH,WindSpeedGustMPH,Humidity,HourlyPrecipIn,Conditions,Clouds,dailyrainin,SoftwareType,DateUTC
2013-05-10 00:00:00,54.7,53.6,30.21,NW,320,0.0,2.0,96,0.00,,,0.00,Wunderground v.1.15,2013-05-10 04:00:00,
2013-05-10 00:05:00,54.8,53.7,30.21,NW,320,1.0,2.0,96,0.00,,,0.00,Wunderground v.1.15,2013-05-10 04:05:00,
2013-05-10 00:10:00,54.6,53.5,30.21,NW,320,1.0,1.0,96,0.00,,,0.00,Wunderground v.1.15,2013-05-10 04:10:00,
2013-05-10 00:15:00,54.5,53.4,30.20,NW,320,0.0,1.0,96,0.00,,,0.00,Wunderground v.1.15,2013-05-10 04:15:00,
2013-05-10 00:20:00,54.8,53.7,30.20,NW,320,0.0,0.0,96,0.00,,,0.00,Wunderground v.1.15,2013-05-10 04:20:00,
2013-05-10 00:25:00,54.6,53.5,30.21,NW,320,1.0,3.0,96,0.00,,,0.00,Wunderground v.1.15,2013-05-10 04:25:00,
2013-05-10 00:30:00,54.1,52.7,30.21,NW,320,1.0,1.0,95,0.00,,,0.00,Wunderground v.1.15,2013-05-10 04:30:00,
2013-05-10 00:35:00,53.5,52.1,30.21,NW,320,1.0,1.0,95,0.00,,,0.00,Wunderground v.1.15,2013-05-10 04:35:00,
2013-05-10 00:40:00,53.1,51.7,30.22,NW,320,0.0,0.0,95,0.00,,,0.00,Wunderground v.1.15,2013-05-10 04:40:00,
2013-05-10 00:45:00,53.2,52.1,30.22,NW,320,0.0,0.0,96,0.00,,,0.00,Wunderground v.1.15,2013-05-10 04:45:00,
2013-05-10 00:50:00,53.7,52.6,30.22,NW,320,1.0,1.0,96,0.00,,,0.00,Wunderground v.1.15,2013-05-10 04:50:00,
2013-05-10 00:55:00,53.7,52.6,30.22,NW,320,0.0,1.0,96,0.00,,,0.00,Wunderground v.1.15,2013-05-10 04:55:00,
2013-05-10 01:00:00,53.5,52.4,30.21,NW,320,0.0,0.0,96,0.00,,,0.00,Wunderground v.1.15,2013-05-10 05:00:00,
2013-05-10 01:10:00,53.3,52.2,30.21,NW,320,0.0,2.0,96,0.00,,,0.00,Wunderground v.1.15,2013-05-10 05:10:00,
2013-05-10 01:15:00,53.2,52.1,30.21,NW,320,0.0,2.0,96,0.00,,,0.00,Wunderground v.1.15,2013-05-10 05:15:00,
2013-05-10 01:20:00,53.2,52.1,30.21,NW,320,0.0,2.0,96,0.00,,,0.00,Wunderground v.1.15,2013-05-10 05:20:00,
2013-05-10 01:25:00,52.8,51.7,30.21,NW,320,0.0,2.0,96,0.00,,,0.00,Wunderground v.1.15,2013-05-10 05:25:00,
2013-05-10 01:30:00,52.6,51.5,30.21,NW,320,0.0,2.0,96,0.00,,,0.00,Wunderground v.1.15,2013-05-10 05:30:00,
2013-05-10 01:35:00,52.8,52.0,30.21,NW,320,0.0,2.0,97,0.00,,,0.00,Wunderground v.1.15,2013-05-10 05:35:00,
2013-05-10 01:40:00,53.3,52.5,30.21,NW,320,0.0,2.0,97,0.00,,,0.00,Wunderground v.1.15,2013-05-10 05:40:00,
2013-05-10 01:45:00,53.3,52.5,30.21,NW,320,0.0,2.0,97,0.00,,,0.00,Wunderground v.1.15,2013-05-10 05:45:00,
2013-05-10 01:50:00,53.4,52.6,30.21,NW,320,0.0,2.0,97,0.00,,,0.00,Wunderground v.1.15,2013-05-10 05:50:00,
2013-05-10 02:00:00,53.1,52.3,30.21,NW,320,0.0,2.0,97,0.00,,,0.00,Wunderground v.1.15,2013-05-10 06:00:00,
2013-05-10 02:05:00,53.5,52.7,30.21,NW,320,0.0,2.0,97,0.00,,,0.00,Wunderground v.1.15,2013-05-10 06:05:00,
2013-05-10 02:10:00,53.4,52.6,30.21,NW,320,0.0,2.0,97,0.00,,,0.00,Wunderground v.1.15,2013-05-10 06:10:00,
2013-05-10 02:15:00,53.0,51.9,30.21,NW,320,0.0,2.0,96,0.00,,,0.00,Wunderground v.1.15,2013-05-10 06:15:00,
2013-05-10 02:20:00,52.6,51.5,30.22,NW,320,0.0,2.0,96,0.00,,,0.00,Wunderground v.1.15,2013-05-10 06:20:00,
2013-05-10 02:25:00,52.3,51.2,30.22,NW,320,1.0,3.0,96,0.00,,,0.00,Wunderground v.1.15,2013-05-10 06:25:00,
2013-05-10 02:35:00,52.4,51.6,30.21,NW,320,3.0,3.0,97,0.00,,,0.00,Wunderground v.1.15,2013-05-10 06:35:00,
2013-05-10 02:40:00,52.1,51.0,30.22,NW,320,3.0,4.0,96,0.00,,,0.00,Wunderground v.1.15,2013-05-10 06:40:00,
2013-05-10 02:45:00,52.6,51.8,30.21,NW,320,2.0,4.0,97,0.00,,,0.00,Wunderground v.1.15,2013-05-10 06:45:00,
2013-05-10 02:50:00,52.6,51.8,30.21,NW,320,2.0,2.0,97,0.00,,,0.00,Wunderground v.1.15,2013-05-10 06:50:00,
2013-05-10 02:55:00,52.8,52.0,30.21,NW,320,1.0,2.0,97,0.00,,,0.00,Wunderground v.1.15,2013-05-10 06:55:00,
2013-05-10 03:05:00,52.5,51.7,30.22,NW,320,2.0,2.0,97,0.00,,,0.00,Wunderground v.1.15,2013-05-10 07:05:00,
2013-05-10 03:10:00,52.1,51.0,30.21,NW,320,2.0,3.0,96,0.00,,,0.00,Wunderground v.1.15,2013-05-10 07:10:00,
2013-05-10 03:15:00,51.8,50.7,30.22,NW,320,2.0,3.0,96,0.00,,,0.00,Wunderground v.1.15,2013-05-10 07:15:00,
2013-05-10 03:20:00,51.5,50.4,30.22,NW,320,2.0,2.0,96,0.00,,,0.00,Wunderground v.1.15,2013-05-10 07:20:00,
2013-05-10 03:25:00,51.3,50.5,30.21,NW,320,2.0,2.0,97,0.00,,,0.00,Wunderground v.1.15,2013-05-10 07:25:00,
2013-05-10 03:30:00,51.5,50.7,30.21,NW,320,2.0,3.0,97,0.00,,,0.00,Wunderground v.1.15,2013-05-10 07:30:00,
2013-05-10 03:40:00,51.4,50.6,30.21,SSW,203,3.0,3.0,97,0.00,,,0.00,Wunderground v.1.15,2013-05-10 07:40:00,
2013-05-10 03:45:00,51.2,50.4,30.22,SSW,203,3.0,3.0,97,0.00,,,0.00,Wunderground v.1.15,2013-05-10 07:45:00,
2013-05-10 03:50:00,51.2,50.4,30.22,SSW,203,3.0,3.0,97,0.00,,,0.00,Wunderground v.1.15,2013-05-10 07:50:00,
2013-05-10 03:55:00,51.2,50.4,30.22,SSW,203,3.0,3.0,97,0.00,,,0.00,Wunderground v.1.15,2013-05-10 07:55:00,
2013-05-10 04:00:00,51.2,50.4,30.21,SSW,203,3.0,3.0,97,0.00,,,0.00,Wunderground v.1.15,2013-05-10 08:00:00,
2013-05-10 04:10:00,51.0,50.2,30.22,SSW,203,3.0,3.0,97,0.00,,,0.00,Wunderground v.1.15,2013-05-10 08:10:00,
2013-05-10 04:15:00,51.0,50.2,30.22,SSW,203,3.0,3.0,97,0.00,,,0.00,Wunderground v.1.15,2013-05-10 08:15:00,
2013-05-10 04:20:00,50.6,49.8,30.22,SSW,203,3.0,3.0,97,0.00,,,0.00,Wunderground v.1.15,2013-05-10 08:20:00,
2013-05-10 04:25:00,50.4,49.6,30.22,SSW,203,2.0,3.0,97,0.00,,,0.00,Wunderground v.1.15,2013-05-10 08:25:00,
2013-05-10 04:30:00,50.5,49.7,30.21,SSW,203,2.0,3.0,97,0.00,,,0.00,Wunderground v.1.15,2013-05-10 08:30:00,
2013-05-10 04:35:00,50.5,49.7,30.21,SSW,203,3.0,3.0,97,0.00,,,0.00,Wunderground v.1.15,2013-05-10 08:35:00,
2013-05-10 04:40:00,50.2,49.4,30.21,SSW,203,2.0,2.0,97,0.00,,,0.00,Wunderground v.1.15,2013-05-10 08:40:00,
2013-05-10 04:45:00,50.0,49.2,30.21,SSW,203,2.0,3.0,97,0.00,,,0.00,Wunderground v.1.15,2013-05-10 08:45:00,
2013-05-10 04:50:00,50.0,49.2,30.21,SSW,203,2.0,2.0,97,0.00,,,0.00,Wunderground v.1.15,2013-05-10 08:50:00,
2013-05-10 04:55:00,50.0,49.2,30.21,SSW,203,1.0,2.0,97,0.00,,,0.00,Wunderground v.1.15,2013-05-10 08:55:00,
2013-05-10 05:00:00,50.0,49.2,30.21,SSW,203,0.0,2.0,97,0.00,,,0.00,Wunderground v.1.15,2013-05-10 09:00:00,
2013-05-10 05:05:00,49.7,48.9,30.21,SSW,203,0.0,2.0,97,0.00,,,0.01,Wunderground v.1.15,2013-05-10 09:05:00,
2013-05-10 05:15:00,49.3,48.5,30.21,SSW,203,2.0,3.0,97,0.00,,,0.01,Wunderground v.1.15,2013-05-10 09:15:00,
2013-05-10 05:20:00,49.3,48.5,30.21,SSW,203,2.0,2.0,97,0.00,,,0.01,Wunderground v.1.15,2013-05-10 09:20:00,
2013-05-10 05:25:00,49.4,48.6,30.21,SSW,203,2.0,2.0,97,0.00,,,0.01,Wunderground v.1.15,2013-05-10 09:25:00,
2013-05-10 05:30:00,49.0,48.2,30.21,SSW,203,2.0,3.0,97,0.00,,,0.01,Wunderground v.1.15,2013-05-10 09:30:00,
2013-05-10 05:35:00,48.9,48.1,30.21,SSW,203,2.0,3.0,97,0.00,,,0.01,Wunderground v.1.15,2013-05-10 09:35:00,
2013-05-10 05:50:00,49.2,48.4,30.22,SSW,203,2.0,2.0,97,0.00,,,0.01,Wunderground v.1.15,2013-05-10 09:50:00,
2013-05-10 05:55:00,49.0,48.2,30.22,SSW,203,2.0,2.0,97,0.00,,,0.01,Wunderground v.1.15,2013-05-10 09:55:00,
2013-05-10 06:00:00,48.8,48.0,30.21,SSW,203,2.0,2.0,97,0.00,,,0.01,Wunderground v.1.15,2013-05-10 10:00:00,
2013-05-10 06:10:00,49.7,48.9,30.21,SSW,203,3.0,3.0,97,0.00,,,0.01,Wunderground v.1.15,2013-05-10 10:10:00,
2013-05-10 06:20:00,50.2,49.4,30.21,SSW,203,3.0,3.0,97,0.00,,,0.01,Wunderground v.1.15,2013-05-10 10:20:00,
2013-05-10 06:25:00,50.1,49.3,30.21,SSW,203,3.0,3.0,97,0.00,,,0.01,Wunderground v.1.15,2013-05-10 10:25:00,
2013-05-10 06:30:00,50.2,49.4,30.21,SSW,203,3.0,3.0,97,0.00,,,0.01,Wunderground v.1.15,2013-05-10 10:30:00,
2013-05-10 06:35:00,50.5,50.0,30.22,SSW,203,3.0,3.0,98,0.00,,,0.01,Wunderground v.1.15,2013-05-10 10:35:00,
2013-05-10 06:40:00,50.7,49.9,30.21,SSW,203,3.0,3.0,97,0.00,,,0.01,Wunderground v.1.15,2013-05-10 10:40:00,
2013-05-10 06:45:00,51.0,50.5,30.21,SSW,203,3.0,3.0,98,0.00,,,0.01,Wunderground v.1.15,2013-05-10 10:45:00,
2013-05-10 06:55:00,51.5,51.0,30.22,SSW,203,3.0,3.0,98,0.00,,,0.01,Wunderground v.1.15,2013-05-10 10:55:00,
2013-05-10 07:05:00,52.4,51.9,30.22,SSW,203,2.0,3.0,98,0.00,,,0.01,Wunderground v.1.15,2013-05-10 11:05:00,
2013-05-10 07:10:00,52.9,52.4,30.22,SSW,203,2.0,4.0,98,0.00,,,0.01,Wunderground v.1.15,2013-05-10 11:10:00,
2013-05-10 07:15:00,53.6,53.0,30.22,SSW,203,3.0,4.0,98,0.00,,,0.01,Wunderground v.1.15,2013-05-10 11:15:00,
2013-05-10 07:20:00,54.0,53.4,30.22,SSW,203,3.0,4.0,98,0.00,,,0.01,Wunderground v.1.15,2013-05-10 11:20:00,
2013-05-10 07:25:00,54.3,53.7,30.22,SSW,203,3.0,5.0,98,0.00,,,0.01,Wunderground v.1.15,2013-05-10 11:25:00,
2013-05-10 07:30:00,54.4,53.8,30.22,SSW,203,3.0,3.0,98,0.00,,,0.01,Wunderground v.1.15,2013-05-10 11:30:00,
2013-05-10 07:35:00,54.7,54.1,30.22,SSW,203,3.0,4.0,98,0.00,,,0.01,Wunderground v.1.15,2013-05-10 11:35:00,
2013-05-10 07:40:00,55.0,54.2,30.22,SSW,203,2.0,2.0,97,0.00,,,0.01,Wunderground v.1.15,2013-05-10 11:40:00,
2013-05-10 07:45:00,55.8,55.0,30.21,SSW,203,1.0,4.0,97,0.00,,,0.01,Wunderground v.1.15,2013-05-10 11:45:00,
2013-05-10 07:50:00,56.6,56.0,30.21,SSW,203,0.0,4.0,98,0.00,,,0.01,Wunderground v.1.15,2013-05-10 11:50:00,
2013-05-10 08:00:00,58.0,56.9,30.21,South,171,2.0,4.0,96,0.00,,,0.01,Wunderground v.1.15,2013-05-10 12:00:00,
2013-05-10 08:05:00,58.9,57.5,30.21,SSE,159,3.0,4.0,95,0.00,,,0.01,Wunderground v.1.15,2013-05-10 12:05:00,
2013-05-10 08:10:00,59.3,57.3,30.21,SSE,159,3.0,3.0,93,0.00,,,0.01,Wunderground v.1.15,2013-05-10 12:10:00,
2013-05-10 08:15:00,59.7,57.4,30.21,SSE,159,2.0,4.0,92,0.00,,,0.01,Wunderground v.1.15,2013-05-10 12:15:00,
2013-05-10 08:20:00,60.4,57.5,30.21,South,169,2.0,5.0,90,0.00,,,0.01,Wunderground v.1.15,2013-05-10 12:20:00,
2013-05-10 08:25:00,61.1,57.5,30.21,South,179,3.0,5.0,88,0.00,,,0.01,Wunderground v.1.15,2013-05-10 12:25:00,
2013-05-10 08:35:00,61.7,56.8,30.21,SSE,167,5.0,5.0,84,0.00,,,0.01,Wunderground v.1.15,2013-05-10 12:35:00,
2013-05-10 08:40:00,62.0,57.1,30.21,SSE,165,5.0,5.0,84,0.00,,,0.01,Wunderground v.1.15,2013-05-10 12:40:00,
2013-05-10 08:45:00,62.5,57.6,30.21,SSW,205,3.0,5.0,84,0.00,,,0.01,Wunderground v.1.15,2013-05-10 12:45:00,
2013-05-10 08:50:00,63.0,56.7,30.21,SE,140,4.0,4.0,80,0.00,,,0.01,Wunderground v.1.15,2013-05-10 12:50:00,
2013-05-10 08:55:00,63.5,56.9,30.21,South,177,5.0,5.0,79,0.00,,,0.01,Wunderground v.1.15,2013-05-10 12:55:00,
2013-05-10 09:05:00,64.4,56.7,30.20,SE,142,5.0,7.0,76,0.00,,,0.01,Wunderground v.1.15,2013-05-10 13:05:00,
2013-05-10 09:10:00,64.7,56.6,30.20,South,190,5.0,8.0,75,0.00,,,0.01,Wunderground v.1.15,2013-05-10 13:10:00,
2013-05-10 09:15:00,64.8,55.6,30.20,South,173,6.0,8.0,72,0.00,,,0.01,Wunderground v.1.15,2013-05-10 13:15:00,
2013-05-10 09:20:00,64.8,56.3,30.20,SSE,165,6.0,6.0,74,0.00,,,0.01,Wunderground v.1.15,2013-05-10 13:20:00,
2013-05-10 09:25:00,65.0,56.5,30.20,SSE,163,5.0,6.0,74,0.00,,,0.01,Wunderground v.1.15,2013-05-10 13:25:00,
2013-05-10 09:30:00,65.5,57.4,30.20,South,178,5.0,5.0,75,0.00,,,0.01,Wunderground v.1.15,2013-05-10 13:30:00,
2013-05-10 09:40:00,66.2,57.3,30.20,SSE,148,5.0,5.0,73,0.00,,,0.01,Wunderground v.1.15,2013-05-10 13:40:00,
2013-05-10 09:45:00,66.2,56.9,30.20,South,173,5.0,5.0,72,0.00,,,0.01,Wunderground v.1.15,2013-05-10 13:45:00,
2013-05-10 09:50:00,66.2,56.1,30.19,South,179,5.0,6.0,70,0.00,,,0.01,Wunderground v.1.15,2013-05-10 13:50:00,
2013-05-10 09:55:00,66.3,56.2,30.19,East,101,5.0,6.0,70,0.00,,,0.01,Wunderground v.1.15,2013-05-10 13:55:00,
2013-05-10 10:00:00,66.2,56.5,30.19,SSE,165,5.0,5.0,71,0.00,,,0.01,Wunderground v.1.15,2013-05-10 14:00:00,
2013-05-10 10:05:00,66.0,55.9,30.19,SSE,159,6.0,6.0,70,0.00,,,0.01,Wunderground v.1.15,2013-05-10 14:05:00,
2013-05-10 10:10:00,66.0,56.7,30.19,SSE,159,6.0,6.0,72,0.00,,,0.01,Wunderground v.1.15,2013-05-10 14:10:00,
2013-05-10 10:15:00,66.1,56.8,30.19,SE,138,5.0,6.0,72,0.00,,,0.01,Wunderground v.1.15,2013-05-10 14:15:00,
2013-05-10 10:20:00,65.9,55.8,30.19,SSE,148,5.0,8.0,70,0.00,,,0.01,Wunderground v.1.15,2013-05-10 14:20:00,
2013-05-10 10:25:00,66.0,56.3,30.19,SSE,147,5.0,8.0,71,0.00,,,0.01,Wunderground v.1.15,2013-05-10 14:25:00,
2013-05-10 10:30:00,66.1,56.4,30.18,South,169,5.0,6.0,71,0.00,,,0.01,Wunderground v.1.15,2013-05-10 14:30:00,
2013-05-10 10:35:00,65.9,55.8,30.18,SSE,150,6.0,6.0,70,0.00,,,0.01,Wunderground v.1.15,2013-05-10 14:35:00,
2013-05-10 10:45:00,65.6,55.9,30.18,SE,142,6.0,9.0,71,0.00,,,0.01,Wunderground v.1.15,2013-05-10 14:45:00,
2013-05-10 10:50:00,65.5,56.2,30.18,SE,146,6.0,7.0,72,0.00,,,0.01,Wunderground v.1.15,2013-05-10 14:50:00,
2013-05-10 10:55:00,65.4,56.1,30.18,SSE,151,6.0,7.0,72,0.00,,,0.01,Wunderground v.1.15,2013-05-10 14:55:00,
2013-05-10 11:00:00,65.3,56.8,30.18,SSE,165,5.0,6.0,74,0.00,,,0.01,Wunderground v.1.15,2013-05-10 15:00:00,
2013-05-10 11:05:00,65.2,56.7,30.18,SE,134,4.0,6.0,74,0.00,,,0.01,Wunderground v.1.15,2013-05-10 15:05:00,
2013-05-10 11:15:00,64.9,56.4,30.18,SSE,153,4.0,6.0,74,0.00,,,0.01,Wunderground v.1.15,2013-05-10 15:15:00,
2013-05-10 11:20:00,64.9,56.0,30.18,SSE,165,5.0,5.0,73,0.00,,,0.01,Wunderground v.1.15,2013-05-10 15:20:00,
2013-05-10 11:25:00,64.9,56.0,30.17,SSE,161,5.0,5.0,73,0.00,,,0.01,Wunderground v.1.15,2013-05-10 15:25:00,
2013-05-10 11:30:00,65.1,55.8,30.17,SE,134,5.0,5.0,72,0.00,,,0.01,Wunderground v.1.15,2013-05-10 15:30:00,
2013-05-10 11:35:00,65.3,56.0,30.17,South,179,5.0,7.0,72,0.00,,,0.01,Wunderground v.1.15,2013-05-10 15:35:00,
2013-05-10 11:40:00,65.4,55.7,30.17,South,178,5.0,6.0,71,0.00,,,0.01,Wunderground v.1.15,2013-05-10 15:40:00,
2013-05-10 11:50:00,65.4,56.5,30.17,SE,144,5.0,5.0,73,0.00,,,0.01,Wunderground v.1.15,2013-05-10 15:50:00,
2013-05-10 11:55:00,65.3,57.2,30.17,SE,135,4.0,6.0,75,0.00,,,0.01,Wunderground v.1.15,2013-05-10 15:55:00,
2013-05-10 12:00:00,65.4,57.3,30.17,SE,143,4.0,4.0,75,0.00,,,0.01,Wunderground v.1.15,2013-05-10 16:00:00,
2013-05-10 12:10:00,65.3,57.2,30.16,South,173,5.0,5.0,75,0.00,,,0.01,Wunderground v.1.15,2013-05-10 16:10:00,
2013-05-10 12:20:00,65.2,57.8,30.17,SSW,203,5.0,5.0,77,0.00,,,0.01,Wunderground v.1.15,2013-05-10 16:20:00,
2013-05-10 12:25:00,65.0,58.0,30.17,South,184,5.0,5.0,78,0.00,,,0.02,Wunderground v.1.15,2013-05-10 16:25:00,
2013-05-10 12:30:00,64.5,57.8,30.17,SSW,193,5.0,5.0,79,0.00,,,0.02,Wunderground v.1.15,2013-05-10 16:30:00,
2013-05-10 12:35:00,64.2,58.6,30.17,SSW,193,4.0,5.0,82,0.00,,,0.02,Wunderground v.1.15,2013-05-10 16:35:00,
2013-05-10 12:40:00,63.8,58.2,30.17,South,185,3.0,3.0,82,0.00,,,0.02,Wunderground v.1.15,2013-05-10 16:40:00,
2013-05-10 12:45:00,63.5,57.6,30.17,South,180,4.0,4.0,81,0.00,,,0.02,Wunderground v.1.15,2013-05-10 16:45:00,
2013-05-10 12:50:00,63.2,56.2,30.17,South,175,5.0,8.0,78,0.00,,,0.02,Wunderground v.1.15,2013-05-10 16:50:00,
2013-05-10 12:55:00,63.1,55.8,30.17,SSW,197,5.0,8.0,77,0.00,,,0.03,Wunderground v.1.15,2013-05-10 16:55:00,
2013-05-10 13:00:00,62.8,55.8,30.17,South,185,5.0,7.0,78,0.00,,,0.03,Wunderground v.1.15,2013-05-10 17:00:00,
2013-05-10 13:05:00,62.4,55.4,30.16,SE,132,5.0,13.0,78,0.00,,,0.03,Wunderground v.1.15,2013-05-10 17:05:00,
2013-05-10 13:10:00,62.2,55.6,30.16,SSE,166,5.0,13.0,79,0.00,,,0.03,Wunderground v.1.15,2013-05-10 17:10:00,
2013-05-10 13:15:00,62.1,55.5,30.16,South,176,6.0,13.0,79,0.00,,,0.03,Wunderground v.1.15,2013-05-10 17:15:00,
2013-05-10 13:25:00,62.2,55.3,30.15,SSE,157,5.0,13.0,78,0.00,,,0.03,Wunderground v.1.15,2013-05-10 17:25:00,
2013-05-10 13:30:00,62.5,55.5,30.15,SSE,168,5.0,5.0,78,0.00,,,0.03,Wunderground v.1.15,2013-05-10 17:30:00,
2013-05-10 13:35:00,63.0,56.0,30.15,South,173,6.0,7.0,78,0.00,,,0.03,Wunderground v.1.15,2013-05-10 17:35:00,
2013-05-10 13:40:00,63.9,56.2,30.14,SSE,168,7.0,13.0,76,0.00,,,0.03,Wunderground v.1.15,2013-05-10 17:40:00,
2013-05-10 13:45:00,65.2,57.4,30.14,SSE,161,7.0,13.0,76,0.00,,,0.03,Wunderground v.1.15,2013-05-10 17:45:00,
2013-05-10 13:55:00,67.1,57.0,30.14,South,171,9.0,14.0,70,0.00,,,0.03,Wunderground v.1.15,2013-05-10 17:55:00,
2013-05-10 14:00:00,67.6,57.5,30.13,SSE,167,10.0,10.0,70,0.00,,,0.03,Wunderground v.1.15,2013-05-10 18:00:00,
2013-05-10 14:05:00,68.0,58.2,30.13,SSE,167,9.0,13.0,71,0.00,,,0.03,Wunderground v.1.15,2013-05-10 18:05:00,
2013-05-10 14:10:00,68.5,57.9,30.13,South,169,8.0,8.0,69,0.00,,,0.03,Wunderground v.1.15,2013-05-10 18:10:00,
2013-05-10 14:15:00,69.1,58.1,30.12,SSW,210,9.0,11.0,68,0.00,,,0.03,Wunderground v.1.15,2013-05-10 18:15:00,
2013-05-10 14:20:00,69.9,59.3,30.12,SE,142,9.0,13.0,69,0.00,,,0.03,Wunderground v.1.15,2013-05-10 18:20:00,
2013-05-10 14:30:00,69.9,58.9,30.12,South,182,9.0,13.0,68,0.00,,,0.03,Wunderground v.1.15,2013-05-10 18:30:00,
2013-05-10 14:35:00,70.5,59.8,30.12,SSE,168,9.0,13.0,69,0.00,,,0.03,Wunderground v.1.15,2013-05-10 18:35:00,
2013-05-10 14:40:00,70.9,59.0,30.12,SSW,208,9.0,13.0,66,0.00,,,0.03,Wunderground v.1.15,2013-05-10 18:40:00,
2013-05-10 14:45:00,71.2,59.7,30.11,SSW,207,10.0,13.0,67,0.00,,,0.03,Wunderground v.1.15,2013-05-10 18:45:00,
2013-05-10 14:50:00,70.8,58.4,30.11,SSE,150,10.0,13.0,65,0.00,,,0.03,Wunderground v.1.15,2013-05-10 18:50:00,
2013-05-10 15:00:00,70.7,58.8,30.10,South,185,10.0,10.0,66,0.00,,,0.03,Wunderground v.1.15,2013-05-10 19:00:00,
2013-05-10 15:05:00,70.9,59.0,30.10,SSE,150,10.0,13.0,66,0.00,,,0.03,Wunderground v.1.15,2013-05-10 19:05:00,
2013-05-10 15:10:00,71.2,58.4,30.10,South,173,11.0,11.0,64,0.00,,,0.03,Wunderground v.1.15,2013-05-10 19:10:00,
2013-05-10 15:15:00,71.5,59.5,30.09,SSE,156,9.0,17.0,66,0.00,,,0.03,Wunderground v.1.15,2013-05-10 19:15:00,
2013-05-10 15:20:00,71.0,58.2,30.09,South,187,10.0,18.0,64,0.00,,,0.03,Wunderground v.1.15,2013-05-10 19:20:00,
2013-05-10 15:25:00,70.9,58.1,30.09,South,177,12.0,18.0,64,0.00,,,0.03,Wunderground v.1.15,2013-05-10 19:25:00,
2013-05-10 15:35:00,70.1,57.8,30.09,South,178,10.0,16.0,65,0.00,,,0.03,Wunderground v.1.15,2013-05-10 19:35:00,
2013-05-10 15:40:00,69.8,57.9,30.09,SSW,200,8.0,8.0,66,0.00,,,0.03,Wunderground v.1.15,2013-05-10 19:40:00,
2013-05-10 15:45:00,69.4,58.0,30.08,SSE,167,9.0,9.0,67,0.00,,,0.03,Wunderground v.1.15,2013-05-10 19:45:00,
2013-05-10 15:50:00,69.1,58.1,30.08,SSW,205,9.0,9.0,68,0.00,,,0.03,Wunderground v.1.15,2013-05-10 19:50:00,
2013-05-10 15:55:00,69.0,58.0,30.08,South,184,7.0,13.0,68,0.00,,,0.03,Wunderground v.1.15,2013-05-10 19:55:00,
2013-05-10 16:00:00,69.0,58.0,30.07,South,175,6.0,6.0,68,0.00,,,0.03,Wunderground v.1.15,2013-05-10 20:00:00,
2013-05-10 16:05:00,68.9,57.9,30.07,SE,137,5.0,13.0,68,0.00,,,0.03,Wunderground v.1.15,2013-05-10 20:05:00,
2013-05-10 16:10:00,68.7,58.1,30.06,South,182,5.0,5.0,69,0.00,,,0.03,Wunderground v.1.15,2013-05-10 20:10:00,
2013-05-10 16:15:00,68.4,58.6,30.06,SSE,163,5.0,13.0,71,0.00,,,0.03,Wunderground v.1.15,2013-05-10 20:15:00,
2013-05-10 16:20:00,68.4,58.6,30.06,SSE,167,5.0,13.0,71,0.00,,,0.03,Wunderground v.1.15,2013-05-10 20:20:00,
2013-05-10 16:25:00,68.8,58.6,30.07,SSE,165,7.0,13.0,70,0.00,,,0.03,Wunderground v.1.15,2013-05-10 20:25:00,
2013-05-10 16:35:00,69.8,59.2,30.06,SSE,147,8.0,13.0,69,0.00,,,0.03,Wunderground v.1.15,2013-05-10 20:35:00,
2013-05-10 16:40:00,70.0,59.0,30.06,South,171,8.0,13.0,68,0.00,,,0.03,Wunderground v.1.15,2013-05-10 20:40:00,
2013-05-10 16:45:00,70.3,59.6,30.06,South,180,9.0,13.0,69,0.00,,,0.03,Wunderground v.1.15,2013-05-10 20:45:00,
2013-05-10 16:50:00,70.5,59.4,30.06,SSE,159,7.0,13.0,68,0.00,,,0.03,Wunderground v.1.15,2013-05-10 20:50:00,
2013-05-10 16:55:00,70.5,59.4,30.05,SSE,165,6.0,13.0,68,0.00,,,0.03,Wunderground v.1.15,2013-05-10 20:55:00,
2013-05-10 17:00:00,70.5,59.0,30.05,South,190,8.0,13.0,67,0.00,,,0.03,Wunderground v.1.15,2013-05-10 21:00:00,
2013-05-10 17:10:00,70.2,59.1,30.05,SSE,164,8.0,8.0,68,0.00,,,0.03,Wunderground v.1.15,2013-05-10 21:10:00,
2013-05-10 17:15:00,70.1,59.0,30.05,SSW,194,7.0,9.0,68,0.00,,,0.03,Wunderground v.1.15,2013-05-10 21:15:00,
2013-05-10 17:20:00,69.9,59.3,30.05,South,171,8.0,8.0,69,0.00,,,0.03,Wunderground v.1.15,2013-05-10 21:20:00,
2013-05-10 17:25:00,69.8,59.2,30.04,SSE,158,7.0,13.0,69,0.00,,,0.03,Wunderground v.1.15,2013-05-10 21:25:00,
2013-05-10 17:30:00,69.7,59.5,30.04,SE,129,6.0,6.0,70,0.00,,,0.03,Wunderground v.1.15,2013-05-10 21:30:00,
2013-05-10 17:40:00,69.3,59.1,30.04,SE,134,6.0,13.0,70,0.00,,,0.03,Wunderground v.1.15,2013-05-10 21:40:00,
2013-05-10 17:45:00,69.2,59.4,30.04,SE,144,6.0,13.0,71,0.00,,,0.03,Wunderground v.1.15,2013-05-10 21:45:00,
2013-05-10 17:50:00,69.0,59.6,30.04,SSE,165,6.0,13.0,72,0.00,,,0.03,Wunderground v.1.15,2013-05-10 21:50:00,
2013-05-10 17:55:00,69.0,59.6,30.04,SE,143,6.0,13.0,72,0.00,,,0.03,Wunderground v.1.15,2013-05-10 21:55:00,
2013-05-10 18:00:00,69.0,59.6,30.04,South,178,5.0,5.0,72,0.00,,,0.03,Wunderground v.1.15,2013-05-10 22:00:00,
2013-05-10 18:05:00,68.9,59.9,30.04,South,169,5.0,5.0,73,0.00,,,0.03,Wunderground v.1.15,2013-05-10 22:05:00,
2013-05-10 18:15:00,68.7,59.3,30.03,South,184,6.0,9.0,72,0.00,,,0.03,Wunderground v.1.15,2013-05-10 22:15:00,
2013-05-10 18:20:00,68.5,59.5,30.04,SSE,153,6.0,6.0,73,0.00,,,0.03,Wunderground v.1.15,2013-05-10 22:20:00,
2013-05-10 18:25:00,68.3,59.3,30.04,South,191,6.0,10.0,73,0.00,,,0.03,Wunderground v.1.15,2013-05-10 22:25:00,
2013-05-10 18:30:00,68.1,59.1,30.03,South,174,6.0,6.0,73,0.00,,,0.03,Wunderground v.1.15,2013-05-10 22:30:00,
2013-05-10 18:35:00,67.9,59.3,30.04,SSW,192,7.0,7.0,74,0.00,,,0.03,Wunderground v.1.15,2013-05-10 22:35:00,
2013-05-10 18:45:00,67.4,59.2,30.03,South,189,6.0,6.0,75,0.00,,,0.03,Wunderground v.1.15,2013-05-10 22:45:00,
2013-05-10 18:50:00,67.1,59.3,30.03,South,186,6.0,6.0,76,0.00,,,0.03,Wunderground v.1.15,2013-05-10 22:50:00,
2013-05-10 18:55:00,66.7,59.3,30.03,South,173,7.0,8.0,77,0.00,,,0.03,Wunderground v.1.15,2013-05-10 22:55:00,
2013-05-10 19:00:00,66.6,59.5,30.03,South,178,7.0,9.0,78,0.00,,,0.03,Wunderground v.1.15,2013-05-10 23:00:00,
2013-05-10 19:05:00,66.6,59.2,30.03,South,173,8.0,13.0,77,0.00,,,0.03,Wunderground v.1.15,2013-05-10 23:05:00,
2013-05-10 19:10:00,66.7,59.3,30.03,SE,138,9.0,9.0,77,0.00,,,0.03,Wunderground v.1.15,2013-05-10 23:10:00,
2013-05-10 19:20:00,66.4,59.3,30.04,SSW,196,8.0,8.0,78,0.00,,,0.03,Wunderground v.1.15,2013-05-10 23:20:00,
2013-05-10 19:25:00,64.9,59.3,30.07,West,263,10.0,10.0,82,1.15,,,0.15,Wunderground v.1.15,2013-05-10 23:25:00,
2013-05-10 19:30:00,62.7,58.5,30.07,SSW,211,13.0,13.0,86,0.33,,,0.18,Wunderground v.1.15,2013-05-10 23:30:00,
2013-05-10 19:35:00,61.5,57.6,30.06,South,190,10.0,13.0,87,0.26,,,0.20,Wunderground v.1.15,2013-05-10 23:35:00,
2013-05-10 19:40:00,60.5,56.9,30.06,South,186,7.0,7.0,88,0.11,,,0.21,Wunderground v.1.15,2013-05-10 23:40:00,
2013-05-10 19:50:00,59.5,56.3,30.06,South,188,7.0,7.0,89,0.07,,,0.22,Wunderground v.1.15,2013-05-10 23:50:00,
2013-05-10 19:55:00,59.2,56.3,30.05,SSE,166,7.0,13.0,90,0.12,,,0.23,Wunderground v.1.15,2013-05-10 23:55:00,
2013-05-10 20:00:00,59.1,56.2,30.05,SSW,213,7.0,13.0,90,0.14,,,0.24,Wunderground v.1.15,2013-05-11 00:00:00,
2013-05-10 20:05:00,59.0,56.4,30.05,South,171,7.0,13.0,91,0.13,,,0.25,Wunderground v.1.15,2013-05-11 00:05:00,
2013-05-10 20:10:00,59.0,56.4,30.06,SSW,198,7.0,13.0,91,0.13,,,0.26,Wunderground v.1.15,2013-05-11 00:10:00,
2013-05-10 20:15:00,59.0,56.4,30.06,SSW,209,7.0,13.0,91,0.07,,,0.26,Wunderground v.1.15,2013-05-11 00:15:00,
2013-05-10 20:20:00,59.1,56.8,30.06,SSW,203,7.0,7.0,92,0.04,,,0.27,Wunderground v.1.15,2013-05-11 00:20:00,
2013-05-10 20:25:00,59.1,56.8,30.06,South,174,7.0,13.0,92,0.04,,,0.27,Wunderground v.1.15,2013-05-11 00:25:00,
2013-05-10 20:30:00,59.1,56.8,30.07,SSW,213,8.0,13.0,92,0.11,,,0.28,Wunderground v.1.15,2013-05-11 00:30:00,
2013-05-10 20:35:00,59.1,57.1,30.08,SSW,207,9.0,13.0,93,0.15,,,0.30,Wunderground v.1.15,2013-05-11 00:35:00,
2013-05-10 20:40:00,59.0,57.0,30.07,SSW,192,9.0,17.0,93,0.44,,,0.33,Wunderground v.1.15,2013-05-11 00:40:00,
2013-05-10 20:45:00,58.9,56.9,30.06,SSE,164,9.0,17.0,93,0.22,,,0.35,Wunderground v.1.15,2013-05-11 00:45:00,
2013-05-10 20:55:00,58.9,56.9,30.06,South,191,7.0,13.0,93,0.35,,,0.40,Wunderground v.1.15,2013-05-11 00:55:00,
2013-05-10 21:00:00,58.8,57.1,30.06,SW,217,7.0,7.0,94,0.14,,,0.41,Wunderground v.1.15,2013-05-11 01:00:00,
2013-05-10 21:05:00,58.8,57.1,30.06,SSW,198,6.0,13.0,94,0.10,,,0.42,Wunderground v.1.15,2013-05-11 01:05:00,
2013-05-10 21:10:00,58.7,57.0,30.05,South,188,5.0,13.0,94,0.10,,,0.42,Wunderground v.1.15,2013-05-11 01:10:00,
2013-05-10 21:15:00,58.6,56.9,30.05,South,189,6.0,13.0,94,0.06,,,0.42,Wunderground v.1.15,2013-05-11 01:15:00,
2013-05-10 21:25:00,58.6,56.6,30.04,South,182,5.0,13.0,93,0.04,,,0.43,Wunderground v.1.15,2013-05-11 01:25:00,
2013-05-10 21:30:00,58.6,56.6,30.04,South,181,5.0,5.0,93,0.04,,,0.43,Wunderground v.1.15,2013-05-11 01:30:00,
2013-05-10 21:35:00,58.6,56.6,30.04,SSE,166,5.0,6.0,93,0.04,,,0.43,Wunderground v.1.15,2013-05-11 01:35:00,
2013-05-10 21:40:00,58.6,56.6,30.04,SSW,193,5.0,13.0,93,0.00,,,0.43,Wunderground v.1.15,2013-05-11 01:40:00,
2013-05-10 21:45:00,58.6,56.6,30.04,South,173,5.0,13.0,93,0.00,,,0.43,Wunderground v.1.15,2013-05-11 01:45:00,
2013-05-10 21:50:00,58.7,57.0,30.04,SSE,167,6.0,6.0,94,0.00,,,0.43,Wunderground v.1.15,2013-05-11 01:50:00,
2013-05-10 22:00:00,58.8,57.1,30.04,SSE,164,6.0,13.0,94,0.00,,,0.43,Wunderground v.1.15,2013-05-11 02:00:00,
2013-05-10 22:05:00,59.0,57.3,30.04,South,173,6.0,13.0,94,0.00,,,0.43,Wunderground v.1.15,2013-05-11 02:05:00,
2013-05-10 22:10:00,59.1,57.4,30.04,SSE,166,6.0,13.0,94,0.00,,,0.43,Wunderground v.1.15,2013-05-11 02:10:00,
2013-05-10 22:15:00,59.2,57.5,30.04,South,173,6.0,13.0,94,0.00,,,0.44,Wunderground v.1.15,2013-05-11 02:15:00,
2013-05-10 22:20:00,59.3,57.6,30.03,SSE,165,7.0,13.0,94,0.00,,,0.44,Wunderground v.1.15,2013-05-11 02:20:00,
2013-05-10 22:30:00,59.3,57.6,30.03,South,180,5.0,5.0,94,0.05,,,0.45,Wunderground v.1.15,2013-05-11 02:30:00,
2013-05-10 22:35:00,59.2,57.5,30.02,SSW,194,5.0,13.0,94,0.08,,,0.46,Wunderground v.1.15,2013-05-11 02:35:00,
2013-05-10 22:40:00,59.2,57.5,30.02,South,188,4.0,4.0,94,0.08,,,0.46,Wunderground v.1.15,2013-05-11 02:40:00,
2013-05-10 22:45:00,59.2,57.5,30.02,South,175,4.0,6.0,94,0.07,,,0.47,Wunderground v.1.15,2013-05-11 02:45:00,
2013-05-10 22:50:00,59.1,57.4,30.02,South,173,4.0,13.0,94,0.07,,,0.47,Wunderground v.1.15,2013-05-11 02:50:00,
2013-05-10 22:55:00,59.1,57.4,30.02,SSE,157,5.0,13.0,94,0.05,,,0.48,Wunderground v.1.15,2013-05-11 02:55:00,
2013-05-10 23:00:00,59.0,57.3,30.02,South,188,5.0,5.0,94,0.05,,,0.48,Wunderground v.1.15,2013-05-11 03:00:00,
2013-05-10 23:05:00,59.0,57.3,30.02,South,185,5.0,13.0,94,0.07,,,0.49,Wunderground v.1.15,2013-05-11 03:05:00,
2013-05-10 23:10:00,58.9,57.2,30.02,South,175,5.0,5.0,94,0.09,,,0.50,Wunderground v.1.15,2013-05-11 03:10:00,
2013-05-10 23:15:00,58.9,57.2,30.01,SSE,159,5.0,13.0,94,0.09,,,0.50,Wunderground v.1.15,2013-05-11 03:15:00,
2013-05-10 23:20:00,58.9,57.2,30.01,South,184,5.0,13.0,94,0.06,,,0.51,Wunderground v.1.15,2013-05-11 03:20:00,
2013-05-10 23:25:00,58.9,57.2,30.01,South,172,5.0,13.0,94,0.06,,,0.51,Wunderground v.1.15,2013-05-11 03:25:00,
2013-05-10 23:35:00,58.7,57.0,30.00,South,170,3.0,13.0,94,0.07,,,0.52,Wunderground v.1.15,2013-05-11 03:35:00,
2013-05-10 23:40:00,58.7,57.0,30.00,South,170,3.0,13.0,94,0.05,,,0.53,Wunderground v.1.15,2013-05-11 03:40:00,
2013-05-10 23:45:00,58.6,56.9,30.00,South,170,3.0,13.0,94,0.05,,,0.53,Wunderground v.1.15,2013-05-11 03:45:00,
2013-05-10 23:50:00,58.6,56.9,30.00,South,171,3.0,3.0,94,0.06,,,0.54,Wunderground v.1.15,2013-05-11 03:50:00,
2013-05-10 23:55:00,58.5,57.1,30.00,South,171,3.0,13.0,95,0.06,,,0.54,Wunderground v.1.15,2013-05-11 03:55:00,